sensor_id;sensor_type;location;lat;lon;timestamp;pressure;altitude;pressure_sealevel;temperature;humidity
71974;BME280;59840;52.122;5.404;2023-07-29T00:00:52;100861.72;;;16.42;100.00
71974;BME280;59840;52.122;5.404;2023-07-29T00:03:19;100854.25;;;16.44;100.00
71974;BME280;59840;52.122;5.404;2023-07-29T00:05:47;100853.22;;;16.40;100.00
71974;BME280;59840;52.122;5.404;2023-07-29T00:08:14;100854.69;;;16.27;100.00
71974;BME280;59840;52.122;5.404;2023-07-29T00:10:40;100850.59;;;16.11;100.00
71974;BME280;59840;52.122;5.404;2023-07-29T00:13:07;100848.44;;;16.13;100.00
71974;BME280;59840;52.122;5.404;2023-07-29T00:15:34;100837.00;;;16.13;100.00
71974;BME280;59840;52.122;5.404;2023-07-29T00:18:01;100841.25;;;16.14;100.00
71974;BME280;59840;52.122;5.404;2023-07-29T00:20:28;100834.94;;;16.04;100.00
71974;BME280;59840;52.122;5.404;2023-07-29T00:22:54;100832.16;;;15.91;100.00
71974;BME280;59840;52.122;5.404;2023-07-29T00:25:21;100822.94;;;15.78;100.00
71974;BME280;59840;52.122;5.404;2023-07-29T00:27:48;100821.34;;;15.77;100.00
71974;BME280;59840;52.122;5.404;2023-07-29T00:30:15;100827.19;;;15.79;100.00
71974;BME280;59840;52.122;5.404;2023-07-29T00:32:42;100817.34;;;15.80;100.00
71974;BME280;59840;52.122;5.404;2023-07-29T00:35:09;100803.44;;;15.88;100.00
71974;BME280;59840;52.122;5.404;2023-07-29T00:37:35;100803.19;;;15.84;100.00
71974;BME280;59840;52.122;5.404;2023-07-29T00:40:15;100795.81;;;15.76;100.00
71974;BME280;59840;52.122;5.404;2023-07-29T00:42:43;100825.28;;;15.85;100.00
71974;BME280;59840;52.122;5.404;2023-07-29T00:45:09;100822.03;;;15.93;100.00
71974;BME280;59840;52.122;5.404;2023-07-29T00:47:37;100824.59;;;15.98;100.00
71974;BME280;59840;52.122;5.404;2023-07-29T00:50:05;100834.66;;;16.06;100.00
71974;BME280;59840;52.122;5.404;2023-07-29T00:52:33;100829.84;;;16.08;100.00
71974;BME280;59840;52.122;5.404;2023-07-29T00:54:59;100820.50;;;16.11;100.00
71974;BME280;59840;52.122;5.404;2023-07-29T00:57:29;100812.72;;;16.19;100.00
71974;BME280;59840;52.122;5.404;2023-07-29T00:59:56;100801.22;;;16.24;100.00
71974;BME280;59840;52.122;5.404;2023-07-29T01:02:23;100803.13;;;16.18;100.00
71974;BME280;59840;52.122;5.404;2023-07-29T01:04:54;100806.31;;;16.20;100.00
71974;BME280;59840;52.122;5.404;2023-07-29T01:10:15;100806.09;;;16.17;100.00
71974;BME280;59840;52.122;5.404;2023-07-29T01:15:52;100812.84;;;15.75;100.00
71974;BME280;59840;52.122;5.404;2023-07-29T01:18:30;100820.44;;;15.53;100.00
71974;BME280;59840;52.122;5.404;2023-07-29T01:21:04;100814.53;;;15.61;100.00
71974;BME280;59840;52.122;5.404;2023-07-29T01:23:33;100809.16;;;15.71;100.00
71974;BME280;59840;52.122;5.404;2023-07-29T01:26:00;100810.34;;;15.89;100.00
71974;BME280;59840;52.122;5.404;2023-07-29T01:28:27;100812.09;;;15.98;100.00
71974;BME280;59840;52.122;5.404;2023-07-29T01:31:07;100808.31;;;16.04;100.00
71974;BME280;59840;52.122;5.404;2023-07-29T01:33:44;100809.13;;;16.05;100.00
71974;BME280;59840;52.122;5.404;2023-07-29T01:36:20;100817.84;;;15.82;100.00
71974;BME280;59840;52.122;5.404;2023-07-29T01:38:49;100809.19;;;15.66;100.00
71974;BME280;59840;52.122;5.404;2023-07-29T01:41:18;100805.22;;;15.63;100.00
71974;BME280;59840;52.122;5.404;2023-07-29T01:43:46;100808.13;;;15.67;100.00
71974;BME280;59840;52.122;5.404;2023-07-29T01:46:14;100802.16;;;15.80;100.00
71974;BME280;59840;52.122;5.404;2023-07-29T01:48:42;100793.03;;;15.91;100.00
71974;BME280;59840;52.122;5.404;2023-07-29T01:51:12;100792.91;;;16.01;100.00
71974;BME280;59840;52.122;5.404;2023-07-29T01:53:40;100805.19;;;15.97;100.00
71974;BME280;59840;52.122;5.404;2023-07-29T01:56:06;100795.56;;;15.72;100.00
71974;BME280;59840;52.122;5.404;2023-07-29T01:58:33;100792.13;;;15.72;100.00
71974;BME280;59840;52.122;5.404;2023-07-29T02:01:00;100789.38;;;15.82;100.00
71974;BME280;59840;52.122;5.404;2023-07-29T02:03:27;100794.03;;;15.95;100.00
71974;BME280;59840;52.122;5.404;2023-07-29T02:05:54;100781.44;;;16.06;100.00
71974;BME280;59840;52.122;5.404;2023-07-29T02:08:21;100786.94;;;16.15;100.00
71974;BME280;59840;52.122;5.404;2023-07-29T02:10:47;100786.59;;;16.21;100.00
71974;BME280;59840;52.122;5.404;2023-07-29T02:13:15;100785.00;;;16.20;100.00
71974;BME280;59840;52.122;5.404;2023-07-29T02:15:42;100785.81;;;16.21;100.00
71974;BME280;59840;52.122;5.404;2023-07-29T02:18:08;100786.69;;;16.11;100.00
71974;BME280;59840;52.122;5.404;2023-07-29T02:20:35;100776.38;;;16.04;100.00
71974;BME280;59840;52.122;5.404;2023-07-29T02:23:05;100778.25;;;16.04;100.00
71974;BME280;59840;52.122;5.404;2023-07-29T02:25:35;100775.34;;;16.00;100.00
71974;BME280;59840;52.122;5.404;2023-07-29T02:28:02;100773.81;;;15.94;100.00
71974;BME280;59840;52.122;5.404;2023-07-29T02:30:30;100778.66;;;15.92;100.00
71974;BME280;59840;52.122;5.404;2023-07-29T02:32:56;100769.34;;;15.90;100.00
71974;BME280;59840;52.122;5.404;2023-07-29T02:35:23;100778.41;;;15.89;100.00
71974;BME280;59840;52.122;5.404;2023-07-29T02:37:50;100777.38;;;15.85;100.00
71974;BME280;59840;52.122;5.404;2023-07-29T02:40:17;100774.50;;;15.81;100.00
71974;BME280;59840;52.122;5.404;2023-07-29T02:42:44;100766.47;;;15.86;100.00
71974;BME280;59840;52.122;5.404;2023-07-29T02:45:10;100769.34;;;15.90;100.00
71974;BME280;59840;52.122;5.404;2023-07-29T02:47:38;100768.94;;;15.78;100.00
71974;BME280;59840;52.122;5.404;2023-07-29T02:50:05;100768.13;;;15.77;100.00
71974;BME280;59840;52.122;5.404;2023-07-29T02:52:34;100771.03;;;15.81;100.00
71974;BME280;59840;52.122;5.404;2023-07-29T02:55:01;100767.25;;;15.87;100.00
71974;BME280;59840;52.122;5.404;2023-07-29T02:57:27;100764.91;;;15.80;100.00
71974;BME280;59840;52.122;5.404;2023-07-29T02:59:54;100764.69;;;15.77;100.00
71974;BME280;59840;52.122;5.404;2023-07-29T03:02:20;100764.72;;;15.71;100.00
71974;BME280;59840;52.122;5.404;2023-07-29T03:04:48;100771.91;;;15.71;100.00
71974;BME280;59840;52.122;5.404;2023-07-29T03:07:14;100763.41;;;15.69;100.00
71974;BME280;59840;52.122;5.404;2023-07-29T03:09:41;100754.91;;;15.67;100.00
71974;BME280;59840;52.122;5.404;2023-07-29T03:12:08;100750.63;;;15.71;100.00
71974;BME280;59840;52.122;5.404;2023-07-29T03:14:35;100752.19;;;15.77;100.00
71974;BME280;59840;52.122;5.404;2023-07-29T03:17:03;100746.06;;;15.77;100.00
71974;BME280;59840;52.122;5.404;2023-07-29T03:19:31;100754.78;;;15.82;100.00
71974;BME280;59840;52.122;5.404;2023-07-29T03:21:57;100747.13;;;15.75;100.00
71974;BME280;59840;52.122;5.404;2023-07-29T03:24:24;100754.03;;;15.77;100.00
71974;BME280;59840;52.122;5.404;2023-07-29T03:26:51;100748.97;;;15.80;100.00
71974;BME280;59840;52.122;5.404;2023-07-29T03:29:18;100754.00;;;15.82;100.00
71974;BME280;59840;52.122;5.404;2023-07-29T03:31:44;100760.16;;;15.77;100.00
71974;BME280;59840;52.122;5.404;2023-07-29T03:34:13;100761.47;;;15.80;100.00
71974;BME280;59840;52.122;5.404;2023-07-29T03:36:40;100760.16;;;15.77;100.00
71974;BME280;59840;52.122;5.404;2023-07-29T03:39:07;100756.19;;;15.74;100.00
71974;BME280;59840;52.122;5.404;2023-07-29T03:41:34;100747.69;;;15.72;100.00
71974;BME280;59840;52.122;5.404;2023-07-29T03:44:00;100749.75;;;15.81;100.00
71974;BME280;59840;52.122;5.404;2023-07-29T03:46:37;100752.66;;;15.84;100.00
71974;BME280;59840;52.122;5.404;2023-07-29T03:49:09;100763.00;;;15.86;100.00
71974;BME280;59840;52.122;5.404;2023-07-29T03:51:49;100765.25;;;15.73;100.00
71974;BME280;59840;52.122;5.404;2023-07-29T03:56:57;100758.34;;;15.72;100.00
71974;BME280;59840;52.122;5.404;2023-07-29T03:59:26;100767.16;;;15.68;100.00
71974;BME280;59840;52.122;5.404;2023-07-29T04:02:04;100763.97;;;15.66;100.00
71974;BME280;59840;52.122;5.404;2023-07-29T04:04:41;100765.78;;;15.70;100.00
71974;BME280;59840;52.122;5.404;2023-07-29T04:07:27;100757.22;;;15.79;100.00
71974;BME280;59840;52.122;5.404;2023-07-29T04:09:57;100761.19;;;15.81;100.00
71974;BME280;59840;52.122;5.404;2023-07-29T04:12:25;100762.78;;;15.82;100.00
71974;BME280;59840;52.122;5.404;2023-07-29T04:14:52;100768.88;;;15.83;100.00
71974;BME280;59840;52.122;5.404;2023-07-29T04:17:19;100761.97;;;15.82;100.00
71974;BME280;59840;52.122;5.404;2023-07-29T04:19:46;100769.41;;;15.85;100.00
71974;BME280;59840;52.122;5.404;2023-07-29T04:22:13;100753.41;;;15.90;100.00
71974;BME280;59840;52.122;5.404;2023-07-29T04:24:40;100752.59;;;15.89;100.00
71974;BME280;59840;52.122;5.404;2023-07-29T04:27:07;100748.59;;;15.92;100.00
71974;BME280;59840;52.122;5.404;2023-07-29T04:29:34;100747.78;;;15.91;100.00
71974;BME280;59840;52.122;5.404;2023-07-29T04:32:05;100763.16;;;15.94;100.00
71974;BME280;59840;52.122;5.404;2023-07-29T04:34:32;100757.38;;;15.92;100.00
71974;BME280;59840;52.122;5.404;2023-07-29T04:36:59;100764.56;;;15.92;100.00
71974;BME280;59840;52.122;5.404;2023-07-29T04:39:26;100761.59;;;15.93;100.00
71974;BME280;59840;52.122;5.404;2023-07-29T04:41:53;100761.59;;;15.93;100.00
71974;BME280;59840;52.122;5.404;2023-07-29T04:44:19;100758.44;;;15.91;100.00
71974;BME280;59840;52.122;5.404;2023-07-29T04:46:46;100761.09;;;15.91;100.00
71974;BME280;59840;52.122;5.404;2023-07-29T04:49:13;100758.44;;;15.91;100.00
71974;BME280;59840;52.122;5.404;2023-07-29T04:51:39;100759.22;;;15.92;100.00
71974;BME280;59840;52.122;5.404;2023-07-29T04:54:06;100761.88;;;15.92;100.00
71974;BME280;59840;52.122;5.404;2023-07-29T04:56:33;100767.50;;;15.90;100.00
71974;BME280;59840;52.122;5.404;2023-07-29T04:58:59;100768.00;;;15.92;100.00
71974;BME280;59840;52.122;5.404;2023-07-29T05:01:26;100761.09;;;15.91;100.00
71974;BME280;59840;52.122;5.404;2023-07-29T05:03:53;100765.34;;;15.92;100.00
71974;BME280;59840;52.122;5.404;2023-07-29T05:06:20;100778.38;;;15.94;100.00
71974;BME280;59840;52.122;5.404;2023-07-29T05:08:47;100771.94;;;15.95;100.00
71974;BME280;59840;52.122;5.404;2023-07-29T05:11:13;100774.28;;;16.01;100.00
71974;BME280;59840;52.122;5.404;2023-07-29T05:13:40;100777.97;;;16.05;100.00
71974;BME280;59840;52.122;5.404;2023-07-29T05:16:11;100784.31;;;16.09;100.00
71974;BME280;59840;52.122;5.404;2023-07-29T05:18:38;100779.22;;;16.13;100.00
71974;BME280;59840;52.122;5.404;2023-07-29T05:21:05;100784.78;;;16.17;100.00
71974;BME280;59840;52.122;5.404;2023-07-29T05:23:31;100781.03;;;16.18;100.00
71974;BME280;59840;52.122;5.404;2023-07-29T05:25:58;100783.16;;;16.21;100.00
71974;BME280;59840;52.122;5.404;2023-07-29T05:28:25;100781.00;;;16.23;100.00
71974;BME280;59840;52.122;5.404;2023-07-29T05:30:52;100780.16;;;16.27;100.00
71974;BME280;59840;52.122;5.404;2023-07-29T05:33:21;100775.03;;;16.31;100.00
71974;BME280;59840;52.122;5.404;2023-07-29T05:35:48;100781.38;;;16.35;100.00
71974;BME280;59840;52.122;5.404;2023-07-29T05:38:15;100793.63;;;16.36;100.00
71974;BME280;59840;52.122;5.404;2023-07-29T05:40:41;100796.78;;;16.38;100.00
71974;BME280;59840;52.122;5.404;2023-07-29T05:43:08;100794.06;;;16.43;100.00
71974;BME280;59840;52.122;5.404;2023-07-29T05:45:35;100791.34;;;16.48;100.00
71974;BME280;59840;52.122;5.404;2023-07-29T05:48:02;100796.13;;;16.51;100.00
71974;BME280;59840;52.122;5.404;2023-07-29T05:50:29;100793.41;;;16.56;100.00
71974;BME280;59840;52.122;5.404;2023-07-29T05:52:56;100795.22;;;16.61;100.00
71974;BME280;59840;52.122;5.404;2023-07-29T05:55:22;100795.44;;;16.64;100.00
71974;BME280;59840;52.122;5.404;2023-07-29T05:57:49;100793.28;;;16.66;100.00
71974;BME280;59840;52.122;5.404;2023-07-29T06:00:24;100787.38;;;16.69;100.00
71974;BME280;59840;52.122;5.404;2023-07-29T06:02:50;100789.47;;;16.72;100.00
71974;BME280;59840;52.122;5.404;2023-07-29T06:05:17;100795.81;;;16.77;100.00
71974;BME280;59840;52.122;5.404;2023-07-29T06:07:45;100786.47;;;16.79;100.00
71974;BME280;59840;52.122;5.404;2023-07-29T06:10:15;100791.22;;;16.82;100.00
71974;BME280;59840;52.122;5.404;2023-07-29T06:12:46;100791.16;;;16.87;100.00
71974;BME280;59840;52.122;5.404;2023-07-29T06:15:13;100784.41;;;16.95;100.00
71974;BME280;59840;52.122;5.404;2023-07-29T06:17:40;100778.13;;;17.04;100.00
71974;BME280;59840;52.122;5.404;2023-07-29T06:20:07;100780.56;;;17.20;100.00
71974;BME280;59840;52.122;5.404;2023-07-29T06:22:34;100780.78;;;17.23;100.00
71974;BME280;59840;52.122;5.404;2023-07-29T06:25:01;100782.31;;;17.29;100.00
71974;BME280;59840;52.122;5.404;2023-07-29T06:27:28;100785.38;;;17.36;100.00
71974;BME280;59840;52.122;5.404;2023-07-29T06:29:55;100781.63;;;17.37;100.00
71974;BME280;59840;52.122;5.404;2023-07-29T06:32:22;100787.47;;;17.39;100.00
71974;BME280;59840;52.122;5.404;2023-07-29T06:34:49;100792.00;;;17.39;100.00
71974;BME280;59840;52.122;5.404;2023-07-29T06:37:15;100789.91;;;17.36;100.00
71974;BME280;59840;52.122;5.404;2023-07-29T06:39:45;100790.13;;;17.39;100.00
71974;BME280;59840;52.122;5.404;2023-07-29T06:42:12;100795.47;;;17.39;100.00
71974;BME280;59840;52.122;5.404;2023-07-29T06:44:39;100792.13;;;17.48;100.00
71974;BME280;59840;52.122;5.404;2023-07-29T06:47:06;100796.09;;;17.50;100.00
71974;BME280;59840;52.122;5.404;2023-07-29T06:49:33;100796.31;;;17.54;100.00
71974;BME280;59840;52.122;5.404;2023-07-29T06:52:00;100806.13;;;17.58;100.00
71974;BME280;59840;52.122;5.404;2023-07-29T06:54:31;100798.56;;;17.65;100.00
71974;BME280;59840;52.122;5.404;2023-07-29T06:56:58;100793.81;;;17.76;100.00
71974;BME280;59840;52.122;5.404;2023-07-29T06:59:25;100797.41;;;17.85;100.00
71974;BME280;59840;52.122;5.404;2023-07-29T07:01:52;100795.91;;;17.79;100.00
71974;BME280;59840;52.122;5.404;2023-07-29T07:04:19;100804.00;;;17.74;100.00
71974;BME280;59840;52.122;5.404;2023-07-29T07:06:46;100801.53;;;17.78;100.00
71974;BME280;59840;52.122;5.404;2023-07-29T07:09:12;100803.03;;;17.84;100.00
71974;BME280;59840;52.122;5.404;2023-07-29T07:11:39;100800.09;;;17.85;100.00
71974;BME280;59840;52.122;5.404;2023-07-29T07:14:06;100800.38;;;17.84;100.00
71974;BME280;59840;52.122;5.404;2023-07-29T07:16:32;100810.47;;;17.87;100.00
71974;BME280;59840;52.122;5.404;2023-07-29T07:18:59;100803.56;;;17.86;100.00
71974;BME280;59840;52.122;5.404;2023-07-29T07:21:26;100815.09;;;17.81;100.00
71974;BME280;59840;52.122;5.404;2023-07-29T07:23:53;100809.25;;;17.79;100.00
71974;BME280;59840;52.122;5.404;2023-07-29T07:26:20;100813.22;;;17.82;100.00
71974;BME280;59840;52.122;5.404;2023-07-29T07:28:47;100818.56;;;17.82;100.00
71974;BME280;59840;52.122;5.404;2023-07-29T07:31:13;100815.38;;;17.80;100.00
71974;BME280;59840;52.122;5.404;2023-07-29T07:33:40;100815.31;;;17.85;100.00
71974;BME280;59840;52.122;5.404;2023-07-29T07:36:06;100821.44;;;17.85;100.00
71974;BME280;59840;52.122;5.404;2023-07-29T07:38:33;100814.72;;;17.88;100.00
71974;BME280;59840;52.122;5.404;2023-07-29T07:40:59;100820.28;;;17.91;100.00
71974;BME280;59840;52.122;5.404;2023-07-29T07:43:26;100813.06;;;17.92;100.00
71974;BME280;59840;52.122;5.404;2023-07-29T07:46:00;100817.81;;;17.95;100.00
71974;BME280;59840;52.122;5.404;2023-07-29T07:48:28;100829.66;;;18.02;100.00
71974;BME280;59840;52.122;5.404;2023-07-29T07:50:54;100818.31;;;18.11;100.00
71974;BME280;59840;52.122;5.404;2023-07-29T07:53:21;100814.09;;;18.23;100.00
71974;BME280;59840;52.122;5.404;2023-07-29T07:55:47;100815.19;;;18.36;100.00
71974;BME280;59840;52.122;5.404;2023-07-29T07:58:14;100811.03;;;18.43;100.00
71974;BME280;59840;52.122;5.404;2023-07-29T08:00:41;100820.31;;;18.46;100.00
71974;BME280;59840;52.122;5.404;2023-07-29T08:03:07;100817.34;;;18.48;100.00
71974;BME280;59840;52.122;5.404;2023-07-29T08:05:35;100833.88;;;18.50;100.00
71974;BME280;59840;52.122;5.404;2023-07-29T08:08:02;100826.06;;;18.53;100.00
71974;BME280;59840;52.122;5.404;2023-07-29T08:10:29;100833.63;;;18.65;100.00
71974;BME280;59840;52.122;5.404;2023-07-29T08:12:55;100822.41;;;18.77;100.00
71974;BME280;59840;52.122;5.404;2023-07-29T08:15:22;100822.00;;;18.83;100.00
71974;BME280;59840;52.122;5.404;2023-07-29T08:17:48;100819.91;;;18.94;100.00
71974;BME280;59840;52.122;5.404;2023-07-29T08:20:15;100822.78;;;18.97;100.00
71974;BME280;59840;52.122;5.404;2023-07-29T08:22:42;100815.25;;;18.99;97.78
71974;BME280;59840;52.122;5.404;2023-07-29T08:25:08;100820.97;;;19.06;98.18
71974;BME280;59840;52.122;5.404;2023-07-29T08:27:35;100821.84;;;19.16;96.28
71974;BME280;59840;52.122;5.404;2023-07-29T08:30:02;100830.16;;;19.14;95.43
71974;BME280;59840;52.122;5.404;2023-07-29T08:32:28;100826.16;;;19.03;95.78
71974;BME280;59840;52.122;5.404;2023-07-29T08:34:55;100826.06;;;18.94;95.91
71974;BME280;59840;52.122;5.404;2023-07-29T08:37:22;100821.72;;;18.85;96.82
71974;BME280;59840;52.122;5.404;2023-07-29T08:39:48;100826.88;;;18.81;97.68
71974;BME280;59840;52.122;5.404;2023-07-29T08:42:16;100827.94;;;18.80;98.32
71974;BME280;59840;52.122;5.404;2023-07-29T08:44:46;100827.94;;;18.80;98.32
71974;BME280;59840;52.122;5.404;2023-07-29T08:47:14;100824.00;;;18.78;98.59
71974;BME280;59840;52.122;5.404;2023-07-29T08:49:41;100827.16;;;18.80;98.07
71974;BME280;59840;52.122;5.404;2023-07-29T08:52:09;100837.25;;;18.83;98.08
71974;BME280;59840;52.122;5.404;2023-07-29T08:54:37;100829.25;;;18.83;97.75
71974;BME280;59840;52.122;5.404;2023-07-29T08:57:04;100822.31;;;18.82;96.60
71974;BME280;59840;52.122;5.404;2023-07-29T08:59:33;100832.69;;;18.83;97.12
71974;BME280;59840;52.122;5.404;2023-07-29T09:01:59;100829.72;;;18.85;96.26
71974;BME280;59840;52.122;5.404;2023-07-29T09:04:26;100828.03;;;18.89;99.98
71974;BME280;59840;52.122;5.404;2023-07-29T09:06:53;100836.84;;;18.89;97.58
71974;BME280;59840;52.122;5.404;2023-07-29T09:09:22;100840.63;;;18.88;97.51
71974;BME280;59840;52.122;5.404;2023-07-29T09:11:48;100837.47;;;18.86;97.48
71974;BME280;59840;52.122;5.404;2023-07-29T09:14:15;100843.00;;;19.03;98.32
71974;BME280;59840;52.122;5.404;2023-07-29T09:16:42;100827.34;;;19.33;96.14
71974;BME280;59840;52.122;5.404;2023-07-29T09:19:08;100831.34;;;19.44;96.83
71974;BME280;59840;52.122;5.404;2023-07-29T09:21:39;100826.78;;;19.45;96.35
71974;BME280;59840;52.122;5.404;2023-07-29T09:24:05;100828.19;;;19.42;94.46
71974;BME280;59840;52.122;5.404;2023-07-29T09:26:34;100835.91;;;19.43;94.55
71974;BME280;59840;52.122;5.404;2023-07-29T09:29:02;100834.69;;;19.50;94.22
71974;BME280;59840;52.122;5.404;2023-07-29T09:31:29;100830.13;;;19.50;95.53
71974;BME280;59840;52.122;5.404;2023-07-29T09:33:57;100823.50;;;19.48;94.03
71974;BME280;59840;52.122;5.404;2023-07-29T09:36:25;100820.00;;;19.38;93.94
71974;BME280;59840;52.122;5.404;2023-07-29T09:38:55;100823.56;;;19.34;94.09
71974;BME280;59840;52.122;5.404;2023-07-29T09:41:27;100835.75;;;19.40;94.62
71974;BME280;59840;52.122;5.404;2023-07-29T09:44:00;100833.53;;;19.42;93.46
71974;BME280;59840;52.122;5.404;2023-07-29T09:46:33;100830.84;;;19.56;93.41
71974;BME280;59840;52.122;5.404;2023-07-29T09:49:06;100833.28;;;19.66;92.58
71974;BME280;59840;52.122;5.404;2023-07-29T09:51:38;100835.09;;;19.57;91.42
71974;BME280;59840;52.122;5.404;2023-07-29T09:54:06;100829.75;;;19.43;92.80
71974;BME280;59840;52.122;5.404;2023-07-29T09:56:33;100832.00;;;19.27;93.77
71974;BME280;59840;52.122;5.404;2023-07-29T09:59:00;100839.56;;;19.12;96.18
71974;BME280;59840;52.122;5.404;2023-07-29T10:01:31;100859.44;;;18.97;98.86
71974;BME280;59840;52.122;5.404;2023-07-29T10:03:58;100854.00;;;18.74;100.00
71974;BME280;59840;52.122;5.404;2023-07-29T10:06:28;100851.69;;;18.54;100.00
71974;BME280;59840;52.122;5.404;2023-07-29T10:08:56;100846.53;;;18.44;100.00
71974;BME280;59840;52.122;5.404;2023-07-29T10:11:24;100838.44;;;18.35;100.00
71974;BME280;59840;52.122;5.404;2023-07-29T10:13:51;100837.81;;;18.38;100.00
71974;BME280;59840;52.122;5.404;2023-07-29T10:16:35;100838.81;;;18.42;100.00
71974;BME280;59840;52.122;5.404;2023-07-29T10:19:04;100845.84;;;18.52;100.00
71974;BME280;59840;52.122;5.404;2023-07-29T10:21:31;100843.78;;;18.49;100.00
71974;BME280;59840;52.122;5.404;2023-07-29T10:24:01;100851.50;;;18.51;100.00
71974;BME280;59840;52.122;5.404;2023-07-29T10:26:30;100847.25;;;18.50;100.00
71974;BME280;59840;52.122;5.404;2023-07-29T10:28:59;100849.31;;;18.53;100.00
71974;BME280;59840;52.122;5.404;2023-07-29T10:31:31;100856.53;;;18.52;100.00
71974;BME280;59840;52.122;5.404;2023-07-29T10:33:58;100857.03;;;18.54;100.00
71974;BME280;59840;52.122;5.404;2023-07-29T10:36:25;100853.78;;;18.57;100.00
71974;BME280;59840;52.122;5.404;2023-07-29T10:38:52;100854.41;;;18.68;100.00
71974;BME280;59840;52.122;5.404;2023-07-29T10:41:19;100857.66;;;18.79;100.00
71974;BME280;59840;52.122;5.404;2023-07-29T10:43:46;100863.78;;;18.79;100.00
71974;BME280;59840;52.122;5.404;2023-07-29T10:46:20;100853.09;;;18.79;100.00
71974;BME280;59840;52.122;5.404;2023-07-29T10:53:52;100846.66;;;18.80;100.00
71974;BME280;59840;52.122;5.404;2023-07-29T10:56:31;100846.38;;;18.82;100.00
71974;BME280;59840;52.122;5.404;2023-07-29T11:01:57;100846.06;;;18.83;100.00
71974;BME280;59840;52.122;5.404;2023-07-29T11:04:26;100846.75;;;18.89;100.00
71974;BME280;59840;52.122;5.404;2023-07-29T11:09:52;100862.91;;;18.97;100.00
71974;BME280;59840;52.122;5.404;2023-07-29T11:17:36;100866.84;;;19.00;100.00
71974;BME280;59840;52.122;5.404;2023-07-29T11:20:04;100860.53;;;18.96;100.00
71974;BME280;59840;52.122;5.404;2023-07-29T11:22:31;100871.22;;;18.96;100.00
71974;BME280;59840;52.122;5.404;2023-07-29T11:25:00;100872.09;;;18.91;100.00
71974;BME280;59840;52.122;5.404;2023-07-29T11:27:26;100868.16;;;18.89;100.00
71974;BME280;59840;52.122;5.404;2023-07-29T11:29:57;100864.50;;;18.85;100.00
71974;BME280;59840;52.122;5.404;2023-07-29T11:32:25;100872.09;;;18.78;100.00
71974;BME280;59840;52.122;5.404;2023-07-29T11:34:52;100861.50;;;18.72;100.00
71974;BME280;59840;52.122;5.404;2023-07-29T11:37:18;100858.47;;;18.65;100.00
71974;BME280;59840;52.122;5.404;2023-07-29T11:39:51;100863.38;;;18.58;100.00
71974;BME280;59840;52.122;5.404;2023-07-29T11:42:18;100862.00;;;18.47;100.00
71974;BME280;59840;52.122;5.404;2023-07-29T11:44:44;100853.06;;;18.38;100.00
71974;BME280;59840;52.122;5.404;2023-07-29T11:47:12;100865.63;;;18.37;100.00
71974;BME280;59840;52.122;5.404;2023-07-29T11:49:40;100861.56;;;18.40;100.00
71974;BME280;59840;52.122;5.404;2023-07-29T11:52:10;100862.00;;;18.47;100.00
71974;BME280;59840;52.122;5.404;2023-07-29T11:54:38;100860.22;;;18.56;100.00
71974;BME280;59840;52.122;5.404;2023-07-29T11:57:09;100863.81;;;18.65;100.00
71974;BME280;59840;52.122;5.404;2023-07-29T11:59:37;100864.97;;;18.73;100.00
71974;BME280;59840;52.122;5.404;2023-07-29T12:02:08;100866.66;;;18.83;100.00
71974;BME280;59840;52.122;5.404;2023-07-29T12:04:37;100861.00;;;18.98;100.00
71974;BME280;59840;52.122;5.404;2023-07-29T12:07:05;100869.28;;;19.10;100.00
71974;BME280;59840;52.122;5.404;2023-07-29T12:09:33;100860.72;;;19.35;100.00
71974;BME280;59840;52.122;5.404;2023-07-29T12:12:01;100862.97;;;19.56;100.00
71974;BME280;59840;52.122;5.404;2023-07-29T12:14:28;100856.19;;;19.81;100.00
71974;BME280;59840;52.122;5.404;2023-07-29T12:16:55;100849.91;;;20.07;100.00
71974;BME280;59840;52.122;5.404;2023-07-29T12:19:22;100849.28;;;20.11;100.00
71974;BME280;59840;52.122;5.404;2023-07-29T12:21:49;100853.41;;;20.17;100.00
71974;BME280;59840;52.122;5.404;2023-07-29T12:24:15;100847.97;;;20.30;100.00
71974;BME280;59840;52.122;5.404;2023-07-29T12:26:42;100847.78;;;20.27;100.00
71974;BME280;59840;52.122;5.404;2023-07-29T12:29:13;100851.84;;;20.16;100.00
71974;BME280;59840;52.122;5.404;2023-07-29T12:31:40;100854.00;;;20.05;100.00
71974;BME280;59840;52.122;5.404;2023-07-29T12:34:08;100854.31;;;20.03;100.00
71974;BME280;59840;52.122;5.404;2023-07-29T12:36:48;100852.28;;;20.09;100.00
71974;BME280;59840;52.122;5.404;2023-07-29T12:39:23;100849.75;;;20.13;100.00
71974;BME280;59840;52.122;5.404;2023-07-29T12:41:51;100849.63;;;20.18;100.00
71974;BME280;59840;52.122;5.404;2023-07-29T12:44:18;100849.94;;;20.16;100.00
71974;BME280;59840;52.122;5.404;2023-07-29T12:46:44;100844.59;;;20.16;100.00
71974;BME280;59840;52.122;5.404;2023-07-29T12:49:11;100849.75;;;20.13;100.00
71974;BME280;59840;52.122;5.404;2023-07-29T12:51:38;100852.41;;;20.04;100.00
71974;BME280;59840;52.122;5.404;2023-07-29T12:54:05;100850.16;;;19.97;100.00
71974;BME280;59840;52.122;5.404;2023-07-29T12:56:33;100854.91;;;20.00;100.00
71974;BME280;59840;52.122;5.404;2023-07-29T12:59:01;100854.03;;;20.14;100.00
71974;BME280;59840;52.122;5.404;2023-07-29T13:01:28;100848.41;;;20.24;100.00
71974;BME280;59840;52.122;5.404;2023-07-29T13:03:54;100847.66;;;20.32;100.00
71974;BME280;59840;52.122;5.404;2023-07-29T13:06:23;100857.19;;;20.47;100.00
71974;BME280;59840;52.122;5.404;2023-07-29T13:08:49;100845.13;;;20.66;99.59